Time;durP1;ratioP1;P1;durP2;ratioP2;P2;SDS_P1;SDS_P2;PMS_P1;PMS_P2;Temp;Humidity;BMP_temperature;BMP_pressure;BME280_temperature;BME280_humidity;BME280_pressure;Samples;Min_cycle;Max_cycle;Signal;HPM_P1;HPM_P2
2022/02/14 00:00:34;;;;;;;0.70;0.50;;;8.50;68.90;;;;;;20798797;28;20037;-70
2022/02/14 00:10:35;;;;;;;0.98;0.50;;;8.50;68.90;;;;;;20877427;28;20040;-70
2022/02/14 00:20:35;;;;;;;1.95;0.70;;;8.40;68.90;;;;;;20862073;28;20033;-73
2022/02/14 00:30:36;;;;;;;1.58;0.60;;;8.40;68.90;;;;;;20877436;28;20388;-70
2022/02/14 00:40:36;;;;;;;0.65;0.60;;;8.40;68.90;;;;;;20893232;28;20482;-70
2022/02/14 00:50:37;;;;;;;0.43;0.43;;;8.40;69.00;;;;;;20876523;28;20479;-70
2022/02/14 01:00:38;;;;;;;1.15;0.63;;;8.50;69.10;;;;;;20859342;28;20044;-70
2022/02/14 01:10:38;;;;;;;1.15;0.60;;;8.40;69.00;;;;;;20858493;28;20056;-70
2022/02/14 01:20:39;;;;;;;0.90;0.50;;;8.40;69.00;;;;;;20842390;28;20036;-70
2022/02/14 01:30:39;;;;;;;0.77;0.63;;;8.40;69.10;;;;;;20857589;28;20033;-71
2022/02/14 01:40:40;;;;;;;0.95;0.60;;;8.40;69.10;;;;;;20874062;28;20067;-71
2022/02/14 01:50:40;;;;;;;1.70;0.80;;;8.40;69.10;;;;;;20858513;28;20041;-71
2022/02/14 02:00:41;;;;;;;1.08;0.70;;;8.40;69.10;;;;;;20856906;28;20294;-71
2022/02/14 02:10:42;;;;;;;1.85;0.63;;;8.40;69.10;;;;;;20873460;28;20078;-71
2022/02/14 02:20:42;;;;;;;0.88;0.55;;;8.40;69.20;;;;;;20868358;28;20428;-72
2022/02/14 02:30:43;;;;;;;2.03;0.60;;;8.40;69.20;;;;;;20886794;28;20509;-71
2022/02/14 02:40:44;;;;;;;1.00;0.60;;;8.40;69.30;;;;;;20869657;28;20033;-70
2022/02/14 02:51:02;;;;;;;1.35;0.43;;;8.50;69.30;;;;;;20903001;28;20055;-71
2022/02/14 03:01:02;;;;;;;1.05;0.65;;;8.40;69.30;;;;;;20901189;28;20490;-70
2022/02/14 03:11:03;;;;;;;1.35;0.55;;;8.50;69.40;;;;;;20867915;28;20040;-71
2022/02/14 03:21:04;;;;;;;0.38;0.30;;;8.40;69.40;;;;;;20850597;28;20117;-70
2022/02/14 03:31:04;;;;;;;0.93;0.60;;;8.50;69.30;;;;;;20865582;28;20487;-72
2022/02/14 03:41:05;;;;;;;1.40;0.50;;;8.50;69.30;;;;;;20849815;28;20384;-71
2022/02/14 03:51:06;;;;;;;1.38;0.60;;;8.50;69.30;;;;;;20865195;28;20128;-71
2022/02/14 04:01:06;;;;;;;1.00;0.50;;;8.50;69.30;;;;;;20880934;28;20029;-70
2022/02/14 04:11:07;;;;;;;0.68;0.30;;;8.50;69.40;;;;;;20864066;28;20040;-70
2022/02/14 04:21:08;;;;;;;1.17;0.50;;;8.40;69.40;;;;;;20862105;28;20033;-70
2022/02/14 04:31:08;;;;;;;0.55;0.30;;;8.40;69.40;;;;;;20865339;28;20037;-70
2022/02/14 04:41:09;;;;;;;0.80;0.50;;;8.50;69.40;;;;;;20860874;28;20029;-71
2022/02/14 04:51:10;;;;;;;0.95;0.50;;;8.40;69.40;;;;;;20844282;28;20033;-70
2022/02/14 05:01:10;;;;;;;0.55;0.40;;;8.40;69.40;;;;;;20875739;28;20067;-70
2022/02/14 05:11:11;;;;;;;0.57;0.50;;;8.40;69.40;;;;;;20842350;28;20080;-72
2022/02/14 05:21:11;;;;;;;0.88;0.50;;;8.50;69.40;;;;;;20874790;28;20036;-71
2022/02/14 05:31:12;;;;;;;1.13;0.52;;;8.50;69.10;;;;;;20857861;28;20064;-71
2022/02/14 05:41:13;;;;;;;1.23;0.80;;;8.70;68.80;;;;;;20857561;28;20021;-71
2022/02/14 05:51:14;;;;;;;0.40;0.40;;;9.00;68.30;;;;;;20875544;28;20490;-71
2022/02/14 06:01:14;;;;;;;1.00;0.52;;;9.20;67.70;;;;;;20894860;28;20297;-76
2022/02/14 06:11:15;;;;;;;0.40;0.30;;;9.40;67.10;;;;;;20955132;28;20043;-71
2022/02/14 06:21:15;;;;;;;0.57;0.43;;;9.50;66.60;;;;;;20916080;28;20111;-74
2022/02/14 06:31:16;;;;;;;2.58;1.15;;;9.50;66.40;;;;;;20860080;28;20474;-74
2022/02/14 06:41:17;;;;;;;1.42;0.60;;;9.40;66.50;;;;;;20893645;28;20061;-77
2022/02/14 06:51:17;;;;;;;1.90;0.60;;;9.30;66.60;;;;;;20917337;28;20390;-74
2022/02/14 07:01:18;;;;;;;3.42;1.15;;;9.10;67.00;;;;;;20851914;28;20479;-75
2022/02/14 07:11:19;;;;;;;2.73;0.87;;;9.00;67.50;;;;;;20875041;28;20037;-74
2022/02/14 07:21:20;;;;;;;8.35;1.92;;;9.00;67.90;;;;;;20842450;28;20336;-75
2022/02/14 07:31:22;;;;;;;1.25;0.63;;;8.90;68.10;;;;;;21250132;22;20048;-75
2022/02/14 07:41:23;;;;;;;1.27;0.60;;;8.90;68.40;;;;;;20928303;28;20033;-76
2022/02/14 07:51:25;;;;;;;2.05;0.73;;;8.80;68.60;;;;;;20938808;28;20045;-76
2022/02/14 08:01:25;;;;;;;1.30;0.63;;;8.70;68.70;;;;;;20960836;28;20036;-76
2022/02/14 08:11:26;;;;;;;1.50;0.77;;;8.70;68.90;;;;;;20928679;28;20047;-74
2022/02/14 08:21:29;;;;;;;1.85;0.73;;;8.70;69.00;;;;;;20944107;28;20297;-76
2022/02/14 08:31:30;;;;;;;3.65;0.98;;;8.70;69.20;;;;;;20960698;28;20459;-76
2022/02/14 08:41:30;;;;;;;1.75;0.77;;;8.60;69.30;;;;;;20941475;28;20035;-76
2022/02/14 08:51:31;;;;;;;0.70;0.50;;;8.60;69.40;;;;;;20975490;28;20060;-77
2022/02/14 09:01:31;;;;;;;4.55;0.50;;;8.60;69.50;;;;;;20923685;28;20025;-75
2022/02/14 09:11:32;;;;;;;2.75;0.50;;;8.60;69.60;;;;;;20955384;28;20036;-75
2022/02/14 09:21:33;;;;;;;1.43;1.00;;;8.60;69.60;;;;;;20890197;28;20037;-75
2022/02/14 09:31:34;;;;;;;0.40;0.40;;;8.60;69.70;;;;;;20894426;28;20357;-74
2022/02/14 09:41:35;;;;;;;1.20;0.73;;;8.60;69.80;;;;;;20922848;28;20068;-75
2022/02/14 09:51:36;;;;;;;1.38;0.80;;;8.60;69.90;;;;;;20905581;28;20479;-74
2022/02/14 10:01:37;;;;;;;2.53;0.60;;;8.60;69.90;;;;;;20924760;28;20102;-75
2022/02/14 10:11:42;;;;;;;0.93;0.50;;;8.60;69.90;;;;;;20969233;28;20036;-74
2022/02/14 10:21:44;;;;;;;0.65;0.38;;;8.70;69.90;;;;;;20913743;28;20036;-75
2022/02/14 10:31:52;;;;;;;0.52;0.40;;;8.70;69.90;;;;;;20934751;28;20547;-75
2022/02/14 10:41:59;;;;;;;1.02;0.68;;;8.70;69.90;;;;;;20958865;28;20111;-74
2022/02/14 10:52:10;;;;;;;1.90;0.60;;;8.70;69.90;;;;;;20962093;28;20378;-74
2022/02/14 11:02:10;;;;;;;0.80;0.57;;;8.70;69.90;;;;;;20902303;28;20395;-71
2022/02/14 11:12:11;;;;;;;0.98;0.40;;;8.70;70.00;;;;;;20951970;28;20071;-72
2022/02/14 11:22:12;;;;;;;1.00;0.70;;;8.70;70.00;;;;;;20964894;28;20036;-72
2022/02/14 11:32:20;;;;;;;2.22;0.55;;;8.80;69.80;;;;;;20964114;28;20070;-73
2022/02/14 11:42:20;;;;;;;2.63;1.02;;;8.90;69.60;;;;;;20965375;28;20044;-72
2022/02/14 11:52:29;;;;;;;2.47;0.70;;;9.20;69.50;;;;;;20946207;28;20040;-77
2022/02/14 12:02:29;;;;;;;2.78;0.95;;;9.30;69.00;;;;;;20948787;28;20052;-69
2022/02/14 12:12:45;;;;;;;5.65;0.77;;;9.40;68.70;;;;;;20922090;28;20068;-72
2022/02/14 12:22:50;;;;;;;5.80;0.70;;;9.60;68.60;;;;;;20912601;28;20033;-73
2022/02/14 12:32:59;;;;;;;3.63;1.08;;;9.70;68.50;;;;;;20909665;28;20508;-72
2022/02/14 12:43:00;;;;;;;1.80;0.50;;;9.70;68.60;;;;;;20910915;28;20043;-74
2022/02/14 12:53:07;;;;;;;5.32;1.10;;;9.70;68.70;;;;;;20950157;28;20123;-73
2022/02/14 13:03:13;;;;;;;1.25;0.60;;;9.60;68.80;;;;;;20863651;28;20071;-74
2022/02/14 13:13:28;;;;;;;2.13;0.70;;;9.50;68.90;;;;;;20890729;28;20403;-72
2022/02/14 13:23:29;;;;;;;1.98;0.63;;;9.40;69.10;;;;;;20900219;28;20041;-72
2022/02/14 13:33:30;;;;;;;5.43;1.10;;;9.30;69.20;;;;;;20910125;28;20032;-74
2022/02/14 13:43:33;;;;;;;1.38;0.52;;;9.30;69.40;;;;;;20960536;28;20365;-77
2022/02/14 13:53:38;;;;;;;2.25;0.80;;;9.30;69.50;;;;;;20941107;28;20090;-79
2022/02/14 14:03:39;;;;;;;5.15;0.90;;;9.30;69.80;;;;;;20934632;28;20029;-76
2022/02/14 14:13:43;;;;;;;1.20;0.65;;;9.30;70.00;;;;;;20907936;28;20490;-79
2022/02/14 14:23:45;;;;;;;4.15;0.70;;;9.30;70.20;;;;;;20947296;28;20033;-86
2022/02/14 14:33:45;;;;;;;1.25;0.80;;;9.30;70.40;;;;;;20913388;28;20041;-78
2022/02/14 14:43:46;;;;;;;4.53;0.98;;;9.30;70.60;;;;;;20972331;28;20505;-78
2022/02/14 14:53:46;;;;;;;1.60;0.75;;;9.30;70.80;;;;;;20954160;28;20062;-78
2022/02/14 15:03:48;;;;;;;1.13;0.90;;;9.20;70.80;;;;;;20902230;28;20390;-77
2022/02/14 15:13:48;;;;;;;3.75;0.77;;;9.30;70.80;;;;;;20900924;28;20040;-75
2022/02/14 15:23:49;;;;;;;7.45;1.42;;;9.30;70.90;;;;;;20899882;28;20419;-75
2022/02/14 15:33:50;;;;;;;2.63;0.90;;;9.30;71.10;;;;;;20881556;28;20506;-75
2022/02/14 15:43:50;;;;;;;4.53;1.10;;;9.30;71.30;;;;;;20899947;28;20064;-75
2022/02/14 15:53:51;;;;;;;2.05;0.60;;;9.30;71.30;;;;;;20897782;28;20075;-74
2022/02/14 16:03:52;;;;;;;10.23;1.00;;;9.30;71.40;;;;;;20915369;28;20502;-76
2022/02/14 16:13:52;;;;;;;3.38;0.98;;;9.30;71.50;;;;;;20935312;28;20051;-75
2022/02/14 16:23:53;;;;;;;3.70;0.75;;;9.40;71.70;;;;;;20924543;28;20482;-75
2022/02/14 16:33:54;;;;;;;4.53;1.00;;;9.30;71.80;;;;;;20942230;28;20120;-76
2022/02/14 16:43:55;;;;;;;3.30;0.50;;;9.40;72.00;;;;;;20953671;28;20029;-75
2022/02/14 16:53:55;;;;;;;2.30;0.80;;;9.40;72.00;;;;;;21030572;28;20065;-76
2022/02/14 17:03:56;;;;;;;2.28;0.80;;;9.30;72.00;;;;;;21025762;28;20527;-76
2022/02/14 17:13:57;;;;;;;3.38;0.80;;;9.40;72.10;;;;;;21048834;28;20047;-79
2022/02/14 17:23:58;;;;;;;4.30;1.00;;;9.40;72.10;;;;;;21035496;28;20025;-75
2022/02/14 17:33:58;;;;;;;1.85;0.95;;;9.40;72.20;;;;;;20980746;28;20403;-72
2022/02/14 17:43:59;;;;;;;2.47;0.90;;;9.30;72.20;;;;;;20896986;28;20044;-72
2022/02/14 17:53:59;;;;;;;2.13;0.60;;;9.30;72.30;;;;;;20915369;28;20303;-72
2022/02/14 18:04:00;;;;;;;0.65;0.50;;;9.30;72.30;;;;;;20983966;28;20170;-72
2022/02/14 18:14:01;;;;;;;3.58;0.70;;;9.30;72.30;;;;;;20937321;28;20040;-73
2022/02/14 18:24:01;;;;;;;1.65;0.75;;;9.30;72.30;;;;;;20936758;28;20040;-76
2022/02/14 18:34:02;;;;;;;0.90;0.60;;;9.30;72.30;;;;;;20983726;28;20051;-73
2022/02/14 18:44:03;;;;;;;2.03;0.43;;;9.30;72.30;;;;;;20969022;28;20496;-73
2022/02/14 18:54:04;;;;;;;0.63;0.60;;;9.30;72.30;;;;;;20967514;28;20119;-72
2022/02/14 19:04:04;;;;;;;1.73;0.80;;;9.30;72.30;;;;;;20979311;28;20024;-73
2022/02/14 19:14:05;;;;;;;2.72;0.85;;;9.30;72.40;;;;;;20931272;28;20039;-75
2022/02/14 19:24:06;;;;;;;3.22;0.70;;;9.30;72.40;;;;;;20949308;28;20554;-73
2022/02/14 19:34:07;;;;;;;0.70;0.60;;;9.30;72.40;;;;;;20979692;28;20040;-72
2022/02/14 19:44:07;;;;;;;1.75;0.70;;;9.30;72.40;;;;;;20964064;28;20028;-77
2022/02/14 19:54:08;;;;;;;0.85;0.70;;;9.30;72.40;;;;;;20979771;28;20116;-71
2022/02/14 20:04:08;;;;;;;1.13;0.57;;;9.30;72.40;;;;;;20946968;28;20024;-71
2022/02/14 20:14:09;;;;;;;1.38;0.63;;;9.30;72.40;;;;;;20925062;28;20052;-70
2022/02/14 20:24:10;;;;;;;0.98;0.63;;;9.30;72.40;;;;;;20974806;28;20044;-72
2022/02/14 20:34:11;;;;;;;0.73;0.50;;;9.30;72.40;;;;;;20959493;28;20079;-72
2022/02/14 20:44:13;;;;;;;0.52;0.50;;;9.30;72.40;;;;;;20960973;28;20789;-72
2022/02/14 20:54:13;;;;;;;1.27;0.60;;;9.30;72.40;;;;;;20949743;28;20032;-72
2022/02/14 21:04:14;;;;;;;1.75;0.85;;;9.30;72.40;;;;;;20956551;28;20047;-72
2022/02/14 21:14:16;;;;;;;4.20;0.77;;;9.30;72.40;;;;;;20941410;28;20388;-71
2022/02/14 21:24:16;;;;;;;1.85;0.70;;;9.30;72.50;;;;;;20991673;28;20029;-72
2022/02/14 21:34:17;;;;;;;2.00;0.77;;;9.20;72.40;;;;;;20956188;28;20044;-72
2022/02/14 21:44:17;;;;;;;0.60;0.40;;;9.20;72.40;;;;;;20956934;28;20106;-71
2022/02/14 21:54:18;;;;;;;1.70;0.65;;;9.40;72.50;;;;;;20939857;28;20041;-71
2022/02/14 22:04:19;;;;;;;0.63;0.40;;;9.30;72.50;;;;;;20922687;28;20497;-71
2022/02/14 22:14:19;;;;;;;0.90;0.60;;;9.30;72.40;;;;;;20955153;28;20080;-71
2022/02/14 22:24:20;;;;;;;1.48;0.80;;;9.30;72.40;;;;;;20989180;28;20421;-72
2022/02/14 22:34:20;;;;;;;1.00;0.50;;;9.30;72.50;;;;;;20971141;28;20052;-72
2022/02/14 22:44:21;;;;;;;0.80;0.50;;;9.30;72.40;;;;;;20966513;28;20064;-71
2022/02/14 22:54:21;;;;;;;0.93;0.53;;;9.30;72.50;;;;;;20951755;28;20044;-71
2022/02/14 23:04:22;;;;;;;0.90;0.50;;;9.30;72.40;;;;;;20900366;28;20294;-71
2022/02/14 23:14:25;;;;;;;1.80;0.53;;;9.30;72.50;;;;;;20900446;28;20044;-71
2022/02/14 23:24:26;;;;;;;0.60;0.55;;;9.20;72.40;;;;;;20916514;28;20630;-72
2022/02/14 23:34:26;;;;;;;0.60;0.50;;;9.30;72.50;;;;;;20917702;28;20033;-71
2022/02/14 23:44:27;;;;;;;1.15;1.05;;;9.30;72.40;;;;;;20898070;28;20043;-71
2022/02/14 23:54:29;;;;;;;1.42;0.60;;;9.30;72.50;;;;;;20881226;28;20037;-71
